http://www.schuttertalwetter.de (Christian Eisenberg)
Wetterdaten: aktuell Dienstag, 04.08.2020 16:55
Datum Zeit Temp. A. Luftdruck Regen Wind Richtung Richtung Sonnenschein Solar Windben
04.08.2020 16:55 18,8 C 1017,3 hPa 0,0 l/m 4,8 km/h (1 Bft) NW 315 20 min 105 W/m 11,3 km/h (2 Bft)
04.08.2020 15:55 16,9 C 1017,1 hPa 0,4 l/m 1,6 km/h (1 Bft) SO 135 5 min 795 W/m 4,8 km/h (1 Bft)
04.08.2020 14:55 19,2 C 1017,0 hPa 0,0 l/m 3,2 km/h (1 Bft) SO 135 0 min 204 W/m 8,0 km/h (2 Bft)
04.08.2020 13:55 18,1 C 1016,8 hPa 0,0 l/m 3,2 km/h (1 Bft) O-SO 112 5 min 287 W/m 4,8 km/h (1 Bft)
04.08.2020 12:55 18,7 C 1016,4 hPa 0,0 l/m 1,6 km/h (1 Bft) NO 45 15 min 432 W/m 6,4 km/h (2 Bft)
04.08.2020 11:55 17,9 C 1016,2 hPa 0,0 l/m 0,0 km/h (0 Bft) N 360 20 min 255 W/m 3,2 km/h (1 Bft)
04.08.2020 10:55 16,4 C 1015,8 hPa 0,0 l/m 1,6 km/h (1 Bft) O-SO 112 15 min 603 W/m 6,4 km/h (2 Bft)
04.08.2020 09:55 15,3 C 1015,6 hPa 0,0 l/m 0,0 km/h (0 Bft) N 0 0 min 163 W/m 0,0 km/h (0 Bft)
04.08.2020 08:55 14,4 C 1015,1 hPa 0,0 l/m 0,0 km/h (0 Bft) N 0 0 min 102 W/m 0,0 km/h (0 Bft)
04.08.2020 07:55 13,9 C 1014,4 hPa 0,0 l/m 0,0 km/h (0 Bft) O-SO 112 0 min 39 W/m 1,6 km/h (1 Bft)
04.08.2020 06:55 13,8 C 1014,0 hPa 0,2 l/m 0,0 km/h (0 Bft) O-SO 112 0 min 9 W/m 1,6 km/h (1 Bft)
04.08.2020 05:55 13,8 C 1013,3 hPa 0,0 l/m 1,6 km/h (1 Bft) O-SO 112 0 min 0 W/m 3,2 km/h (1 Bft)
04.08.2020 04:55 14,1 C 1013,2 hPa 0,6 l/m 1,6 km/h (1 Bft) S 180 0 min 0 W/m 6,4 km/h (2 Bft)
04.08.2020 03:55 14,4 C 1013,1 hPa 0,2 l/m 1,6 km/h (1 Bft) SW 225 0 min 0 W/m 3,2 km/h (1 Bft)
04.08.2020 02:55 14,5 C 1012,8 hPa 0,0 l/m 0,0 km/h (0 Bft) N 0 0 min 0 W/m 0,0 km/h (0 Bft)
04.08.2020 01:55 14,6 C 1012,7 hPa 0,0 l/m 0,0 km/h (0 Bft) N 0 0 min 0 W/m 0,0 km/h (0 Bft)
04.08.2020 00:55 14,8 C 1012,9 hPa 0,0 l/m 0,0 km/h (0 Bft) N 0 0 min 0 W/m 0,0 km/h (0 Bft)
03.08.2020 23:55 14,8 C 1012,7 hPa 0,0 l/m 0,0 km/h (0 Bft) N 0 0 min 0 W/m 0,0 km/h (0 Bft)
03.08.2020 22:55 14,9 C 1012,2 hPa 0,0 l/m 0,0 km/h (0 Bft) N 0 0 min 0 W/m 0,0 km/h (0 Bft)
03.08.2020 21:55 15,1 C 1012,2 hPa 0,2 l/m 1,6 km/h (1 Bft) NW 315 0 min 0 W/m 4,8 km/h (1 Bft)
03.08.2020 20:55 15,3 C 1011,9 hPa 0,6 l/m 3,2 km/h (1 Bft) S-SW 202 0 min 0 W/m 4,8 km/h (1 Bft)
03.08.2020 19:55 15,9 C 1011,8 hPa 1,0 l/m 6,4 km/h (2 Bft) NW 315 0 min 9 W/m 11,3 km/h (2 Bft)
03.08.2020 18:55 16,1 C 1010,9 hPa 0,8 l/m 3,2 km/h (1 Bft) S-SO 157 0 min 49 W/m 6,4 km/h (2 Bft)
03.08.2020 17:55 17,9 C 1011,2 hPa 0,0 l/m 4,8 km/h (1 Bft) S 180 0 min 95 W/m 8,0 km/h (2 Bft)
03.08.2020 17:00 18,2 C 1010,4 hPa 0,0 l/m 0,0 km/h (0 Bft) N-NO 22 0 min 269 W/m 1,6 km/h (1 Bft)
_ Min-Zeit 06:40 17:00 - 16:35 - - - - 13:40
Minimum _ 13,7 C 1010,4 hPa - 0,0 km/h (0 Bft) - - - - 0,0 km/h (0 Bft)
_ Max-Zeit 16:40 16:45 15:15 15:40 - - 16:25 12:45 15:40
Maximum _ 19,4 C 1017,4 hPa 0,2 l/m 9,7 km/h
O-SO (2 Bft)
- - 5 min 1055 W/m 16,1 km/h
O-SO (3 Bft)
Durchschnitt _ 16,0 C 1013,6 hPa #4,0 l/m 1,2 km/h (1 Bft) O-SO - #1:20 h 231 W/m 3,4 km/h (1 Bft)